createdAt,value
2019-03-24T00:00:13.998Z,164361.20
2019-03-24T00:02:43.236Z,164383.81
2019-03-24T00:05:12.321Z,164399.78
2019-03-24T00:07:41.328Z,164373.20
2019-03-24T00:10:10.533Z,164304.00
2019-03-24T00:12:39.486Z,164290.72
2019-03-24T00:15:08.716Z,164333.27
2019-03-24T00:17:37.715Z,164331.94
2019-03-24T00:20:10.031Z,164365.19
2019-03-24T00:22:38.448Z,164357.22
2019-03-24T00:25:08.463Z,164337.25
2019-03-24T00:27:37.642Z,164298.67
2019-03-24T00:30:07.175Z,164311.97
2019-03-24T00:32:36.126Z,164305.34
2019-03-24T00:35:05.127Z,164326.59
2019-03-24T00:37:34.157Z,164326.59
2019-03-24T00:40:03.269Z,164304.00
2019-03-24T00:42:33.056Z,164314.66
2019-03-24T00:45:02.046Z,164338.59
2019-03-24T00:47:30.979Z,164319.98
2019-03-24T00:49:59.856Z,164335.91
2019-03-24T00:52:29.241Z,164289.36
2019-03-24T00:54:58.120Z,164313.31
2019-03-24T00:57:27.051Z,164242.83
2019-03-24T00:59:56.299Z,164210.88
2019-03-24T01:02:25.676Z,164244.12
2019-03-24T01:04:54.736Z,164256.13
2019-03-24T01:07:23.652Z,164296.03
2019-03-24T01:09:52.575Z,164278.72
2019-03-24T01:12:21.614Z,164201.58
2019-03-24T01:14:51.266Z,164254.78
2019-03-24T01:17:20.345Z,164290.72
2019-03-24T01:19:49.239Z,164242.83
2019-03-24T01:22:18.798Z,164242.83
2019-03-24T01:24:47.707Z,164254.78
2019-03-24T01:27:16.591Z,164186.94
2019-03-24T01:29:45.565Z,164202.91
2019-03-24T01:32:14.844Z,164189.62
2019-03-24T01:34:43.770Z,164218.89
2019-03-24T01:37:12.671Z,164266.77
2019-03-24T01:39:41.609Z,164294.69
2019-03-24T01:42:10.589Z,164292.00
2019-03-24T01:44:39.822Z,164284.05
2019-03-24T01:47:11.727Z,164226.84
2019-03-24T01:49:41.750Z,164260.09
2019-03-24T01:52:10.687Z,164217.55
2019-03-24T01:54:39.750Z,164213.56
2019-03-24T01:57:08.653Z,164198.94
2019-03-24T01:59:37.692Z,164266.77
2019-03-24T02:02:06.667Z,164260.09
2019-03-24T02:04:35.890Z,164286.73
2019-03-24T02:07:04.805Z,164269.41
2019-03-24T02:09:34.010Z,164256.13
2019-03-24T02:12:03.056Z,164309.33
2019-03-24T02:14:31.938Z,164322.63
2019-03-24T02:17:00.909Z,164264.08
2019-03-24T02:19:29.839Z,164244.12
2019-03-24T02:21:58.881Z,164282.69
2019-03-24T02:24:27.938Z,164224.22
2019-03-24T02:26:56.884Z,164256.13
2019-03-24T02:29:25.827Z,164307.98
2019-03-24T02:31:54.761Z,164326.59
2019-03-24T02:34:23.654Z,164293.34
2019-03-24T02:36:52.678Z,164296.03
2019-03-24T02:39:21.576Z,164319.98
2019-03-24T02:41:50.623Z,164302.66
2019-03-24T02:44:20.149Z,164261.44
2019-03-24T02:46:49.064Z,164284.05
2019-03-24T02:49:17.948Z,164256.13
2019-03-24T02:51:46.957Z,164242.83
2019-03-24T02:54:15.943Z,164282.69
2019-03-24T02:56:44.834Z,164274.73
2019-03-24T02:59:13.781Z,164306.64
2019-03-24T03:01:43.057Z,164293.34
2019-03-24T03:04:12.037Z,164293.34
2019-03-24T03:06:40.982Z,164318.64
2019-03-24T03:09:09.924Z,164322.63
2019-03-24T03:11:38.844Z,164345.22
2019-03-24T03:14:07.858Z,164317.28
2019-03-24T03:16:38.567Z,164346.56
2019-03-24T03:19:07.652Z,164351.89
2019-03-24T03:21:36.875Z,164357.22
2019-03-24T03:24:06.157Z,164325.31
2019-03-24T03:26:35.075Z,164319.98
2019-03-24T03:29:04.413Z,164322.63
2019-03-24T03:31:33.417Z,164300.02
2019-03-24T03:34:02.328Z,164302.66
2019-03-24T03:36:31.779Z,164325.31
2019-03-24T03:39:00.672Z,164359.86
2019-03-24T03:41:30.255Z,164369.16
2019-03-24T03:43:59.171Z,164383.81
2019-03-24T03:46:28.129Z,164387.84
2019-03-24T03:48:57.491Z,164375.84
2019-03-24T03:51:26.414Z,164363.89
2019-03-24T03:53:55.336Z,164296.03
2019-03-24T03:56:24.433Z,164305.34
2019-03-24T03:58:53.339Z,164355.88
2019-03-24T04:01:22.285Z,164349.25
2019-03-24T04:03:51.719Z,164327.94
2019-03-24T04:06:20.636Z,164325.31
2019-03-24T04:08:49.851Z,164302.66
2019-03-24T04:11:18.766Z,164292.00
2019-03-24T04:13:47.696Z,164309.33
2019-03-24T04:16:16.967Z,164343.92
2019-03-24T04:18:45.813Z,164350.55
2019-03-24T04:21:15.186Z,164370.52
2019-03-24T04:23:44.469Z,164350.55
2019-03-24T04:26:13.723Z,164274.73
2019-03-24T04:28:42.580Z,164266.77
2019-03-24T04:31:11.563Z,164294.69
2019-03-24T04:33:40.687Z,164333.27
2019-03-24T04:36:09.563Z,164351.89
2019-03-24T04:38:38.510Z,164341.23
2019-03-24T04:41:07.399Z,164315.95
2019-03-24T04:43:36.288Z,164317.28
2019-03-24T04:46:05.555Z,164334.63
2019-03-24T04:48:34.477Z,164323.97
2019-03-24T04:51:03.506Z,164367.87
2019-03-24T04:53:32.503Z,164244.12
2019-03-24T04:56:01.516Z,164261.44
2019-03-24T04:58:30.518Z,164339.89
2019-03-24T05:00:59.707Z,164335.91
2019-03-24T05:03:28.675Z,164334.63
2019-03-24T05:05:58.094Z,164325.31
2019-03-24T05:08:27.733Z,164322.63
2019-03-24T05:10:56.660Z,164307.98
2019-03-24T05:13:25.590Z,164339.89
2019-03-24T05:15:54.840Z,164355.88
2019-03-24T05:18:23.689Z,164327.94
2019-03-24T05:20:52.939Z,164375.84
2019-03-24T05:23:21.872Z,164371.84
2019-03-24T05:25:51.389Z,164343.92
2019-03-24T05:28:21.037Z,164280.06
2019-03-24T05:30:49.899Z,164326.59
2019-03-24T05:33:18.801Z,164330.58
2019-03-24T05:35:47.725Z,164330.58
2019-03-24T05:38:16.658Z,164322.63
2019-03-24T05:40:45.528Z,164296.03
2019-03-24T05:43:14.565Z,164306.64
2019-03-24T05:45:43.457Z,164246.81
2019-03-24T05:48:12.450Z,164248.16
2019-03-24T05:50:41.654Z,164323.97
2019-03-24T05:53:10.516Z,164292.00
2019-03-24T05:55:39.426Z,164242.83
2019-03-24T05:58:08.854Z,164237.50
2019-03-24T06:00:37.741Z,164234.81
2019-03-24T06:03:07.246Z,164289.36
2019-03-24T06:05:36.165Z,164307.98
2019-03-24T06:08:05.336Z,164335.91
2019-03-24T06:10:34.668Z,164378.47
2019-03-24T06:13:03.704Z,164386.50
2019-03-24T06:15:32.594Z,164323.97
2019-03-24T06:18:01.521Z,164322.63
2019-03-24T06:20:30.405Z,164365.19
2019-03-24T06:22:59.329Z,164265.42
2019-03-24T06:25:28.577Z,164322.63
2019-03-24T06:27:57.492Z,164350.55
2019-03-24T06:30:26.396Z,164349.25
2019-03-24T06:32:55.308Z,164331.94
2019-03-24T06:35:24.214Z,164362.55
2019-03-24T06:37:53.165Z,164300.02
2019-03-24T06:40:22.122Z,164189.62
2019-03-24T06:42:51.009Z,164210.88
2019-03-24T06:45:27.982Z,164288.03
2019-03-24T06:47:57.842Z,164323.97
2019-03-24T06:50:22.251Z,164367.87
2019-03-24T06:52:51.584Z,164407.75
2019-03-24T06:55:20.494Z,164494.25
2019-03-24T06:57:49.390Z,164546.19
2019-03-24T07:00:18.341Z,164551.48
2019-03-24T07:02:47.613Z,164567.47
2019-03-24T07:05:16.563Z,164603.44
2019-03-24T07:07:46.418Z,164672.64
2019-03-24T07:10:15.396Z,164781.88
2019-03-24T07:12:44.472Z,164863.19
2019-03-24T07:15:13.724Z,164913.78
2019-03-24T07:17:42.603Z,164957.75
2019-03-24T07:20:12.359Z,164967.09
2019-03-24T07:22:41.628Z,165023.03
2019-03-24T07:25:10.630Z,165132.33
2019-03-24T07:27:39.800Z,164987.08
2019-03-24T07:30:10.084Z,165188.36
2019-03-24T07:32:38.928Z,165292.34
2019-03-24T07:35:07.821Z,165327.03
2019-03-24T07:37:36.786Z,165329.69
2019-03-24T07:40:08.301Z,165337.72
2019-03-24T07:42:37.305Z,165363.08
2019-03-24T07:45:08.135Z,165357.78
2019-03-24T07:47:37.074Z,165292.34
2019-03-24T07:50:07.485Z,165385.80
2019-03-24T07:52:37.200Z,165173.69
2019-03-24T07:55:09.961Z,165249.69
2019-03-24T07:57:38.867Z,165268.34
2019-03-24T08:00:09.034Z,165240.34
2019-03-24T08:02:39.738Z,165348.45
2019-03-24T08:05:08.751Z,165260.36
2019-03-24T08:07:37.675Z,165276.37
2019-03-24T08:10:06.927Z,165236.36
2019-03-24T08:12:35.937Z,165288.36
2019-03-24T08:15:05.162Z,165292.34
2019-03-24T08:17:34.278Z,165349.75
2019-03-24T08:20:03.335Z,165291.00
2019-03-24T08:22:32.486Z,165316.36
2019-03-24T08:25:01.738Z,165239.00
2019-03-24T08:27:31.131Z,165319.05
2019-03-24T08:30:00.359Z,165237.70
2019-03-24T08:32:29.376Z,165229.67
2019-03-24T08:34:58.780Z,165167.00
2019-03-24T08:37:28.124Z,165263.00
2019-03-24T08:39:57.070Z,165271.05
2019-03-24T08:42:26.003Z,165348.45
2019-03-24T08:44:54.854Z,165369.77
2019-03-24T08:47:23.734Z,165348.45
2019-03-24T08:49:53.075Z,165412.45
2019-03-24T08:52:22.071Z,165463.17
2019-03-24T08:54:50.955Z,165388.44
2019-03-24T08:57:19.951Z,165381.80
2019-03-24T08:59:48.803Z,165365.78
2019-03-24T09:02:17.831Z,165331.03
2019-03-24T09:04:46.777Z,165255.03
2019-03-24T09:07:15.695Z,165320.34
2019-03-24T09:09:44.593Z,165385.80
2019-03-24T09:12:13.619Z,165371.13
2019-03-24T09:14:43.448Z,165192.34
2019-03-24T09:17:13.480Z,165268.34
2019-03-24T09:19:42.455Z,165475.16
2019-03-24T09:22:11.424Z,165547.22
2019-03-24T09:24:40.500Z,165592.62
2019-03-24T09:27:09.484Z,165556.56
2019-03-24T09:29:38.345Z,165567.25
2019-03-24T09:32:08.036Z,165642.02
2019-03-24T09:34:36.953Z,165628.63
2019-03-24T09:37:05.842Z,165581.94
2019-03-24T09:39:34.960Z,165601.95
2019-03-24T09:42:03.875Z,165624.63
2019-03-24T09:44:32.730Z,165563.25
2019-03-24T09:47:01.641Z,165347.11
2019-03-24T09:49:30.584Z,165589.92
2019-03-24T09:51:59.540Z,165664.70
2019-03-24T09:54:29.526Z,165656.66
2019-03-24T09:56:58.524Z,165548.56
2019-03-24T09:59:27.468Z,165391.14
2019-03-24T10:01:56.365Z,165467.17
2019-03-24T10:04:25.381Z,165467.17
2019-03-24T10:06:54.368Z,165623.28
2019-03-24T10:09:23.226Z,165687.38
2019-03-24T10:11:52.178Z,165746.14
2019-03-24T10:14:21.087Z,165625.98
2019-03-24T10:16:50.048Z,165647.31
2019-03-24T10:19:19.029Z,165655.36
2019-03-24T10:21:47.931Z,165463.17
2019-03-24T10:24:16.825Z,165611.30
2019-03-24T10:26:45.774Z,165732.80
2019-03-24T10:29:15.134Z,165623.28
2019-03-24T10:31:44.107Z,165667.34
2019-03-24T10:34:13.534Z,165609.95
2019-03-24T10:36:42.477Z,165575.23
2019-03-24T10:39:11.395Z,165624.63
2019-03-24T10:41:40.377Z,165465.83
2019-03-24T10:44:09.271Z,165413.80
2019-03-24T10:46:38.199Z,165468.52
2019-03-24T10:49:07.117Z,165710.06
2019-03-24T10:51:36.263Z,165625.98
2019-03-24T10:54:05.282Z,165796.84
2019-03-24T10:56:34.186Z,165796.84
2019-03-24T10:59:03.519Z,165810.25
2019-03-24T11:01:33.546Z,165820.89
2019-03-24T11:04:02.463Z,165815.55
2019-03-24T11:06:31.517Z,165831.59
2019-03-24T11:09:00.707Z,165698.08
2019-03-24T11:11:29.608Z,165714.11
2019-03-24T11:13:58.501Z,165775.52
2019-03-24T11:16:27.416Z,165786.22
2019-03-24T11:18:56.605Z,165536.53
2019-03-24T11:21:25.620Z,165684.73
2019-03-24T11:23:54.517Z,165870.38
2019-03-24T11:26:23.503Z,165875.72
2019-03-24T11:28:52.393Z,165921.16
2019-03-24T11:31:21.387Z,165978.59
2019-03-24T11:33:50.372Z,165931.81
2019-03-24T11:36:19.575Z,165966.55
2019-03-24T11:38:48.491Z,166038.70
2019-03-24T11:41:17.394Z,166078.81
2019-03-24T11:43:46.597Z,166029.34
2019-03-24T11:46:15.477Z,165846.34
2019-03-24T11:48:44.416Z,165770.17
2019-03-24T11:51:13.405Z,165806.19
2019-03-24T11:53:42.692Z,165782.16
2019-03-24T11:56:11.903Z,165938.50
2019-03-24T11:58:40.883Z,166016.00
2019-03-24T12:01:09.805Z,166008.00
2019-03-24T12:03:39.054Z,166013.30
2019-03-24T12:06:14.450Z,166042.70
2019-03-24T12:08:38.985Z,166086.81
2019-03-24T12:11:07.886Z,165975.91
2019-03-24T12:13:37.898Z,165951.84
2019-03-24T12:16:06.891Z,165831.59
2019-03-24T12:18:35.829Z,165711.41
2019-03-24T12:21:04.795Z,165770.17
2019-03-24T12:23:33.874Z,165732.80
2019-03-24T12:26:02.802Z,165719.41
2019-03-24T12:28:31.825Z,165660.70
2019-03-24T12:31:00.767Z,165660.70
2019-03-24T12:33:29.688Z,165740.78
2019-03-24T12:35:58.657Z,165767.47
2019-03-24T12:38:27.557Z,165770.17
2019-03-24T12:40:56.489Z,165855.69
2019-03-24T12:43:25.445Z,165814.25
2019-03-24T12:45:54.433Z,165839.63
2019-03-24T12:48:23.696Z,165822.25
2019-03-24T12:50:52.675Z,165849.03
2019-03-24T12:53:21.656Z,165906.47
2019-03-24T12:55:50.586Z,165918.47
2019-03-24T12:58:19.896Z,165911.81
2019-03-24T13:00:49.441Z,165881.06
2019-03-24T13:03:18.748Z,165914.45
2019-03-24T13:05:48.052Z,165889.06
2019-03-24T13:08:18.660Z,165915.81
2019-03-24T13:10:48.856Z,165911.81
2019-03-24T13:13:17.792Z,165869.03
2019-03-24T13:15:46.716Z,165930.52
2019-03-24T13:18:15.744Z,165911.81
2019-03-24T13:20:45.183Z,165911.81
2019-03-24T13:23:14.189Z,165946.50
2019-03-24T13:25:43.132Z,165869.03
2019-03-24T13:28:12.086Z,165993.30
2019-03-24T13:30:41.020Z,166022.66
2019-03-24T13:33:09.988Z,166005.30
2019-03-24T13:35:39.169Z,166005.30
2019-03-24T13:38:08.650Z,166053.41
2019-03-24T13:40:37.597Z,166057.41
2019-03-24T13:43:06.928Z,166062.75
2019-03-24T13:45:35.823Z,166056.09
2019-03-24T13:48:04.821Z,166061.41
2019-03-24T13:50:33.703Z,166086.81
2019-03-24T13:53:02.767Z,166136.27
2019-03-24T13:55:31.658Z,166130.91
2019-03-24T13:58:00.718Z,166086.81
2019-03-24T14:00:29.789Z,166064.09
2019-03-24T14:02:59.608Z,166014.66
2019-03-24T14:05:28.645Z,166116.22
2019-03-24T14:07:57.566Z,166077.45
2019-03-24T14:10:26.541Z,166098.86
2019-03-24T14:12:55.497Z,166102.86
2019-03-24T14:15:24.740Z,166097.50
2019-03-24T14:17:53.626Z,166105.50
2019-03-24T14:20:22.539Z,166114.86
2019-03-24T14:22:51.673Z,166074.81
2019-03-24T14:25:20.669Z,166152.31
2019-03-24T14:27:49.549Z,166185.73
2019-03-24T14:30:43.601Z,166232.50
2019-03-24T14:33:13.700Z,166225.81
2019-03-24T14:35:42.836Z,166229.86
2019-03-24T14:38:11.754Z,166240.52
2019-03-24T14:40:40.681Z,166271.33
2019-03-24T14:43:09.898Z,166320.81
2019-03-24T14:45:38.947Z,166395.67
2019-03-24T14:48:07.906Z,166383.67
2019-03-24T14:50:36.825Z,166237.86
2019-03-24T14:53:05.683Z,166161.67
2019-03-24T14:55:34.911Z,166136.27
2019-03-24T14:58:03.797Z,166171.03
2019-03-24T15:00:45.769Z,166176.38
2019-03-24T15:03:14.735Z,166205.73
2019-03-24T15:05:44.087Z,166158.97
2019-03-24T15:08:12.979Z,166199.09
2019-03-24T15:10:42.058Z,166179.03
2019-03-24T15:13:11.266Z,166184.39
2019-03-24T15:15:40.150Z,166024.00
2019-03-24T15:18:09.095Z,166098.86
2019-03-24T15:20:38.111Z,166185.73
2019-03-24T15:23:07.470Z,166149.63
2019-03-24T15:25:36.400Z,166036.05
2019-03-24T15:28:05.421Z,166084.16
2019-03-24T15:30:34.321Z,166090.80
2019-03-24T15:33:03.248Z,166129.56
2019-03-24T15:35:32.197Z,166129.56
2019-03-24T15:38:08.114Z,166117.56
2019-03-24T15:40:32.010Z,166101.50
2019-03-24T15:43:00.962Z,166050.75
2019-03-24T15:45:29.836Z,166002.66
2019-03-24T15:47:59.715Z,166029.34
2019-03-24T15:50:28.641Z,166033.34
2019-03-24T15:52:57.580Z,166026.70
2019-03-24T15:55:26.557Z,165997.30
2019-03-24T15:57:55.510Z,165978.59
2019-03-24T16:00:47.956Z,165970.55
2019-03-24T16:03:17.072Z,165998.59
2019-03-24T16:05:46.194Z,165983.95
2019-03-24T16:08:15.205Z,165975.91
2019-03-24T16:10:44.212Z,165965.20
2019-03-24T16:13:13.148Z,165890.42
2019-03-24T16:15:42.077Z,165918.47
2019-03-24T16:18:11.129Z,165863.67
2019-03-24T16:20:40.063Z,165887.77
2019-03-24T16:23:09.000Z,165877.08
2019-03-24T16:25:38.045Z,165883.72
2019-03-24T16:28:07.038Z,165887.77
2019-03-24T16:30:35.916Z,165822.25
2019-03-24T16:33:04.984Z,165886.42
2019-03-24T16:35:33.975Z,165917.11
2019-03-24T16:38:03.185Z,165874.38
2019-03-24T16:40:32.146Z,165807.55
2019-03-24T16:43:01.066Z,165799.56
2019-03-24T16:45:30.121Z,165804.91
2019-03-24T16:47:59.434Z,165799.56
2019-03-24T16:50:28.372Z,165787.52
2019-03-24T16:52:57.397Z,165751.48
2019-03-24T16:55:26.305Z,165680.69
2019-03-24T16:57:55.395Z,165636.67
2019-03-24T17:00:24.441Z,165563.25
2019-03-24T17:02:53.348Z,165612.66
2019-03-24T17:05:22.415Z,165615.30
2019-03-24T17:07:51.713Z,165659.34
2019-03-24T17:10:20.955Z,165604.61
2019-03-24T17:12:49.999Z,165624.63
2019-03-24T17:15:19.367Z,165588.63
2019-03-24T17:17:48.275Z,165585.92
2019-03-24T17:20:17.199Z,165565.91
2019-03-24T17:22:46.101Z,165587.28
2019-03-24T17:25:16.582Z,165508.52
2019-03-24T17:27:45.498Z,165533.87
2019-03-24T17:30:14.968Z,165455.14
2019-03-24T17:32:44.018Z,165500.53
2019-03-24T17:35:13.130Z,165476.50
2019-03-24T17:37:42.283Z,165465.83
2019-03-24T17:40:12.597Z,165420.48
2019-03-24T17:42:41.617Z,165397.78
2019-03-24T17:45:15.631Z,165388.44
2019-03-24T17:47:44.644Z,165383.09
2019-03-24T17:50:33.022Z,165391.14
2019-03-24T17:53:02.049Z,165385.80
2019-03-24T17:55:31.191Z,165384.44
2019-03-24T17:58:00.479Z,165368.42
2019-03-24T18:00:42.799Z,165359.09
2019-03-24T18:03:11.699Z,165327.03
2019-03-24T18:05:40.829Z,165297.69
2019-03-24T18:08:10.013Z,165237.70
2019-03-24T18:10:39.208Z,165239.00
2019-03-24T18:13:08.100Z,165209.66
2019-03-24T18:15:37.126Z,165159.02
2019-03-24T18:18:06.189Z,165167.00
2019-03-24T18:20:35.481Z,165097.72
2019-03-24T18:23:04.611Z,165124.34
2019-03-24T18:25:33.506Z,165127.05
2019-03-24T18:28:02.529Z,165129.69
2019-03-24T18:30:32.849Z,165055.06
2019-03-24T18:33:02.086Z,165104.34
2019-03-24T18:35:30.947Z,165101.70
2019-03-24T18:37:59.870Z,165096.36
2019-03-24T18:40:28.726Z,165033.72
2019-03-24T18:42:57.667Z,165084.34
2019-03-24T18:45:26.640Z,165069.72
2019-03-24T18:47:55.591Z,165044.38
2019-03-24T18:50:24.491Z,165092.37
2019-03-24T18:52:53.431Z,165105.69
2019-03-24T18:55:22.310Z,165104.34
2019-03-24T18:57:53.049Z,165056.36
2019-03-24T19:00:22.230Z,165105.69
2019-03-24T19:02:51.662Z,165095.02
2019-03-24T19:05:20.645Z,165103.05
2019-03-24T19:07:49.890Z,165089.67
2019-03-24T19:10:18.990Z,165097.72
2019-03-24T19:12:48.766Z,165076.36
2019-03-24T19:15:18.311Z,165092.37
2019-03-24T19:17:47.318Z,165068.38
2019-03-24T19:20:18.778Z,165084.34
2019-03-24T19:22:47.803Z,165065.69
2019-03-24T19:25:16.710Z,165053.72
2019-03-24T19:27:45.618Z,165108.33
2019-03-24T19:30:16.892Z,165081.69
2019-03-24T19:32:46.307Z,165052.38
2019-03-24T19:35:15.235Z,165093.72
2019-03-24T19:37:45.871Z,165116.36
2019-03-24T19:40:33.534Z,165125.69
2019-03-24T19:43:02.500Z,165064.39
2019-03-24T19:45:31.766Z,165055.06
2019-03-24T19:48:01.875Z,165088.38
2019-03-24T19:50:30.776Z,165097.72
2019-03-24T19:52:59.717Z,165088.38
2019-03-24T19:55:28.634Z,165109.67
2019-03-24T19:57:57.824Z,165053.72
2019-03-24T20:00:26.728Z,165072.37
2019-03-24T20:02:55.641Z,164999.05
2019-03-24T20:05:26.873Z,165033.72
2019-03-24T20:07:55.694Z,165000.39
2019-03-24T20:10:25.010Z,165017.70
2019-03-24T20:12:53.962Z,165052.38
2019-03-24T20:15:22.833Z,165013.72
2019-03-24T20:17:51.755Z,164988.38
2019-03-24T20:20:21.077Z,164976.41
2019-03-24T20:22:56.368Z,164976.41
2019-03-24T20:25:20.880Z,165001.75
2019-03-24T20:27:49.936Z,164973.72
2019-03-24T20:30:19.179Z,164999.05
2019-03-24T20:32:48.082Z,164984.39
2019-03-24T20:35:17.118Z,165005.73
2019-03-24T20:37:46.334Z,164985.73
2019-03-24T20:40:16.059Z,164991.06
2019-03-24T20:42:44.983Z,164993.72
2019-03-24T20:45:14.236Z,165005.73
2019-03-24T20:47:43.245Z,165033.72
2019-03-24T20:50:13.165Z,165020.39
2019-03-24T20:52:42.510Z,165027.03
2019-03-24T20:55:11.849Z,165041.69
2019-03-24T20:57:40.780Z,165020.39
2019-03-24T21:00:10.745Z,165053.72
2019-03-24T21:02:40.864Z,165065.69
2019-03-24T21:05:11.147Z,165007.08
2019-03-24T21:07:41.008Z,165024.38
2019-03-24T21:10:10.602Z,165049.72
2019-03-24T21:12:40.303Z,165015.06
2019-03-24T21:15:17.511Z,164963.09
2019-03-24T21:17:46.904Z,164972.42
2019-03-24T21:20:16.681Z,164943.09
2019-03-24T21:22:46.724Z,164915.12
2019-03-24T21:25:16.502Z,164907.09
2019-03-24T21:27:46.152Z,164897.78
2019-03-24T21:30:17.866Z,164909.80
2019-03-24T21:32:47.317Z,164879.13
2019-03-24T21:35:17.527Z,164868.47
2019-03-24T21:37:47.196Z,164847.17
2019-03-24T21:40:16.995Z,164817.86
2019-03-24T21:42:46.219Z,164811.19
2019-03-24T21:45:18.417Z,164804.56
2019-03-24T21:47:47.515Z,164792.55
2019-03-24T21:50:16.466Z,164791.19
2019-03-24T21:52:45.423Z,164755.27
2019-03-24T21:55:14.521Z,164781.88
2019-03-24T21:57:43.494Z,164772.56
2019-03-24T22:00:12.781Z,164736.63
2019-03-24T22:02:41.837Z,164724.61
2019-03-24T22:05:11.772Z,164736.63
2019-03-24T22:07:41.741Z,164724.61
2019-03-24T22:10:11.435Z,164714.00
2019-03-24T22:12:40.832Z,164663.31
2019-03-24T22:15:11.078Z,164667.31
2019-03-24T22:17:41.016Z,164666.02
2019-03-24T22:20:11.738Z,164657.98
2019-03-24T22:22:41.496Z,164655.34
2019-03-24T22:25:10.667Z,164664.66
2019-03-24T22:27:39.630Z,164634.03
2019-03-24T22:30:09.463Z,164622.06
2019-03-24T22:32:38.392Z,164603.44
2019-03-24T22:35:07.315Z,164623.36
2019-03-24T22:37:36.221Z,164598.11
2019-03-24T22:40:07.139Z,164614.05
2019-03-24T22:42:36.017Z,164620.72
2019-03-24T22:45:06.880Z,164611.41
2019-03-24T22:47:35.765Z,164604.72
2019-03-24T22:50:05.306Z,164624.70
2019-03-24T22:52:34.358Z,164623.36
2019-03-24T22:55:03.557Z,164616.73
2019-03-24T22:57:32.748Z,164655.34
2019-03-24T23:00:01.881Z,164623.36
2019-03-24T23:02:30.781Z,164664.66
2019-03-24T23:04:59.917Z,164663.31
2019-03-24T23:07:29.440Z,164656.64
2019-03-24T23:09:58.386Z,164676.63
2019-03-24T23:12:27.447Z,164705.97
2019-03-24T23:14:56.443Z,164688.63
2019-03-24T23:17:25.823Z,164681.95
2019-03-24T23:19:55.120Z,164701.94
2019-03-24T23:22:24.721Z,164714.00
2019-03-24T23:24:53.685Z,164715.30
2019-03-24T23:27:22.903Z,164711.31
2019-03-24T23:29:52.028Z,164717.98
2019-03-24T23:32:21.097Z,164685.94
2019-03-24T23:34:50.893Z,164691.28
2019-03-24T23:37:20.025Z,164692.63
2019-03-24T23:39:49.213Z,164688.63
2019-03-24T23:42:18.318Z,164684.64
2019-03-24T23:44:47.997Z,164703.34
2019-03-24T23:47:17.162Z,164695.25
2019-03-24T23:49:46.243Z,164673.98
2019-03-24T23:52:15.834Z,164666.02
2019-03-24T23:54:44.848Z,164699.30
2019-03-24T23:57:13.755Z,164685.94
2019-03-24T23:59:42.714Z,164691.28
